Windfall, IN (46076)

1:57 AM EST on December 29, 2014 (GMT -0500)
Greentown | Change Station
CLOSE
Current Station
Personal Weather Station
Location: Greentown, IN
Elevation: 853 ft
Nearby Weather Stations

Elev 853 ft 40.42 °N, 85.89 °W | Updated 14 minutes ago

Clear
Clear
25.8 °F
Feels Like 26 °F
N
0.0
Wind Variable Wind from WNW
Gusts 0.0 mph

Today
High -- | Low -- °F
--% Chance of Precip.
Yesterday
High -- | Low -- °F
Precip. -- in
8:06 AM 5:25 PM
First Quarter, 56% visible
Pressure 30.24 in
Visibility 5.0 miles
Clouds Clear
Windchill 26 °F
Dew Point 25 °F
Humidity 96%
Rainfall 0.00 in
Snow Depth Not available.
UV 0 out of 12
Pollen .10 out of 12
Air Quality Not available.
Flu Activity Not available.
METAR KOKK 290635Z AUTO 20003KT 5SM CLR M04/M07 A3024 RMK AO1

More Conditions Fewer Conditions

Pressure 30.24 in
Visibility 5.0 miles
Clouds Clear
Windchill 26 °F
Dew Point 25 °F
Humidity 96%
Rainfall 0.00 in
Snow Depth Not available.
UV 0 out of 12
Pollen .10 out of 12
Air Quality Not available.
Flu Activity Not available.
METAR KOKK 290635Z AUTO 20003KT 5SM CLR M04/M07 A3024 RMK AO1

More Conditions Fewer Conditions

10-Day Weather Forecast

Almanac

Astronomy

Dec. 29, 2014 Rise Set
Actual Time
Civil Twilight
Nautical Twilight
Astronomical Twilight
Moon
Length of Visible Light
Length of Day
Tomorrow will be .
, % of the Moon is Illuminated

Today's Extremes

State Highs State Lows

Community

WunderPhotos

Upload Photos

1,781,546 photos uploaded!

WunderBlogs® & News

Nearby

Air Quality

  Air Quality AQ Index Pollutant
Not available.

Snow Depth

Station Depth Elevation

Earthquake Activity

City Distance Mag. Time & Date
Minimum magnitude displayed is 2.5.

Coastal Water Temperatures

Place Temperature

Nearby Weather Stations